Norwegian Gem — C6VG8 — position and weather

sailwx.info

Track history (hours):
 
Tides and Currents Weather Stations Pressure Air Temp Water Temp Dewpoint Dewpoint Depression Visibility Wind Speed Wind Dir Waves Ship Positions

Norwegian Gem (Bahamas)

Last reported at 2018-Jul-22 00:13 UTC. Time now 2018-Jul-22 06:50 UTC.
Position N 39°27' W 073°55'.

Length 294 m; draft 8.6 m.

Type: Ship. MMSI: 309951000.

Date/timePositionNaut miles runAvg speedWind from/ knotsBaromVisibWave heightAir tempDewpointWater temp
2018-Jul-22 00:13N 39°27' W 073°55'419.1
2018-Jul-21 23:59N 39°31' W 073°54'918.9
2018-Jul-21 23:30N 39°40' W 073°53'1018.9
2018-Jul-21 22:59N 39°50' W 073°52'3718.5
2018-Jul-21 20:58N 40°27' W 073°50'817.0
2018-Jul-21 20:30N 40°31' W 073°59'815.5
2018-Jul-21 20:00N 40°38' W 074°03'612.8
2018-Jul-21 19:30N 40°44' W 074°01'2 4.1
2018-Jul-21 19:00N 40°46' W 073°60'0 0.0
2018-Jul-21 18:30N 40°46' W 073°60'0 0.0
2018-Jul-21 17:57N 40°46' W 073°60'0 0.0
2018-Jul-21 17:30N 40°46' W 073°60'0 0.0
2018-Jul-21 16:56N 40°46' W 073°60'0 0.0
2018-Jul-21 16:29N 40°46' W 073°60'0 0.0
2018-Jul-21 15:59N 40°46' W 073°60'0 0.0
2018-Jul-21 15:29N 40°46' W 073°60'0 0.0
2018-Jul-21 14:59N 40°46' W 073°60'0 0.0
2018-Jul-21 14:28N 40°46' W 073°60'0 0.0
2018-Jul-21 13:28N 40°46' W 073°60'0 0.0
2018-Jul-21 12:58N 40°46' W 073°60'0 0.0
2018-Jul-21 12:28N 40°46' W 073°60'0 0.0
2018-Jul-21 12:00N 40°46' W 073°60'0 0.0
2018-Jul-21 11:30N 40°46' W 073°60'0 0.0
2018-Jul-21 11:00N 40°46' W 073°60'2 4.9
2018-Jul-21 10:30N 40°44' W 074°01'714.8
2018-Jul-21 10:00N 40°36' W 074°03'714.6
2018-Jul-21 09:30N 40°30' W 073°58'815.1
2018-Jul-21 09:00N 40°27' W 073°49'5 8.7
2018-Jul-21 08:24N 40°22' W 073°46'813.2
2018-Jul-21 07:48N 40°14' W 073°45'2212.6
2018-Jul-21 06:02N 39°52' W 073°42'212.4
2018-Jul-21 05:54N 39°50' W 073°42'712.4
2018-Jul-21 05:21N 39°43' W 073°42'513.2
2018-Jul-21 05:00N 39°39' W 073°43'10615.2
2018-Jul-20 22:00N 37°54' W 074°06'10417.3 100 / 261018.810.8 24.0 22.0
2018-Jul-20 16:00N 36°12' W 074°30'9816.3 090 / 171019.7 5.4 25.4 27.0
2018-Jul-20 10:00N 34°36' W 074°54'12818.4 100 / 261017.110.8 24.0 22.0
2018-Jul-20 03:00N 32°30' W 075°24'6716.7 210 / 111017.3 5.4 25.0 27.0
2018-Jul-19 23:00N 31°24' W 075°36'20215.6 190 / 91016.310.8 28.0 24.0
2018-Jul-19 10:00N 28°06' W 076°24'154 5.3 190 / 151016.610.8 28.0 26.0
2018-Jul-18 05:00N 25°42' W 077°24'272 6.3 120 / 111019.9 5.4 28.5 30.0
2018-Jul-16 10:00N 29°42' W 079°48'22320.2 210 / 131017.410.8 29.0 26.0
2018-Jul-15 23:00N 32°54' W 077°36'11021.0 130 / 131016.410.8 27.0 26.0
2018-Jul-15 17:46N 34°19' W 076°13'720.4
2018-Jul-15 17:26N 34°24' W 076°07'1328.2
2018-Jul-15 17:00N 34°30' W 075°54'11218.1 150 / 111019.1 5.4 26.5 30.0
2018-Jul-15 10:49N 36°12' W 074°57'1011.6
2018-Jul-15 10:00N 36°18' W 074°48'1389.9 190 / 91019.210.8 24.0 20.0
2018-Jul-15 09:51N 36°31' W 074°48'721.2
2018-Jul-15 09:30N 36°37' W 074°44'1120.9
2018-Jul-15 08:59N 36°47' W 074°38'1120.8
2018-Jul-15 08:27N 36°57' W 074°33'1120.5
2018-Jul-15 07:56N 37°08' W 074°29'1020.8
2018-Jul-15 07:26N 37°18' W 074°27'920.8
2018-Jul-15 07:00N 37°27' W 074°25'1020.7
2018-Jul-15 06:30N 37°36' W 074°21'1121.2
2018-Jul-15 06:00N 37°47' W 074°18'1121.2
2018-Jul-15 05:29N 37°57' W 074°16'1021.0
2018-Jul-15 05:00N 38°08' W 074°13'1020.7
2018-Jul-15 04:30N 38°17' W 074°10'1020.5
2018-Jul-15 04:00N 38°28' W 074°08'1020.0
2018-Jul-15 03:30N 38°38' W 074°07'1020.0
2018-Jul-15 03:00N 38°47' W 074°04'1019.9
2018-Jul-15 02:31N 38°57' W 074°01'1019.5
2018-Jul-15 02:00N 39°07' W 073°59'1019.4
2018-Jul-15 01:30N 39°16' W 073°57'1019.2
2018-Jul-15 01:00N 39°26' W 073°55'1018.8
2018-Jul-15 00:29N 39°35' W 073°54'918.7
2018-Jul-15 00:00N 39°44' W 073°53'918.7
2018-Jul-14 23:30N 39°54' W 073°52'1218.8
2018-Jul-14 22:51N 40°06' W 073°50'1219.0
2018-Jul-14 22:13N 40°18' W 073°49'519.1
2018-Jul-14 21:59N 40°22' W 073°49'713.7
2018-Jul-14 21:30N 40°28' W 073°53'816.2
2018-Jul-14 21:01N 40°33' W 074°02'815.4
2018-Jul-14 20:30N 40°40' W 074°03'612.0
2018-Jul-14 20:00N 40°46' W 074°00'0 0.6
2018-Jul-14 19:30N 40°46' W 073°60'0 0.0
2018-Jul-14 18:59N 40°46' W 073°60'0 0.0
2018-Jul-14 18:29N 40°46' W 073°60'0 0.0
2018-Jul-14 17:59N 40°46' W 073°60'0 0.0
2018-Jul-14 17:29N 40°46' W 073°60'0 0.0
2018-Jul-14 16:59N 40°46' W 073°60'0 0.0
2018-Jul-14 16:25N 40°46' W 073°60'0 0.0
2018-Jul-14 15:58N 40°46' W 073°60'0 0.0
2018-Jul-14 15:28N 40°46' W 073°60'0 0.0
2018-Jul-14 14:52N 40°46' W 073°60'0 0.0
2018-Jul-14 14:00N 40°46' W 073°60'0 0.0
2018-Jul-14 13:30N 40°46' W 073°60'0 0.0
2018-Jul-14 13:00N 40°46' W 073°60'0 0.0
2018-Jul-14 12:30N 40°46' W 073°60'0 0.0
2018-Jul-14 11:56N 40°46' W 073°60'0 0.0
2018-Jul-14 11:26N 40°46' W 073°60'0 0.5
2018-Jul-14 10:59N 40°46' W 074°00'4 7.5
2018-Jul-14 10:31N 40°43' W 074°02'611.6
2018-Jul-14 10:01N 40°37' W 074°03'612.6
2018-Jul-14 09:30N 40°31' W 073°60'714.1
2018-Jul-14 09:01N 40°28' W 073°51'510.3
2018-Jul-14 08:31N 40°24' W 073°47'612.9
2018-Jul-14 08:01N 40°18' W 073°46'714.7
2018-Jul-14 07:30N 40°10' W 073°45'816.0
2018-Jul-14 07:00N 40°02' W 073°44'816.4
2018-Jul-14 06:30N 39°54' W 073°43'816.3
2018-Jul-14 06:00N 39°46' W 073°42'816.1
2018-Jul-14 05:30N 39°38' W 073°43'816.3
2018-Jul-14 05:00N 39°30' W 073°45'816.2
2018-Jul-14 04:30N 39°22' W 073°46'816.1
2018-Jul-14 04:00N 39°14' W 073°48'815.8
2018-Jul-14 03:30N 39°06' W 073°50'815.9
2018-Jul-14 03:00N 38°58' W 073°51'816.0
2018-Jul-14 02:31N 38°51' W 073°52'815.7
2018-Jul-14 02:00N 38°43' W 073°55'816.2
2018-Jul-14 01:30N 38°35' W 073°56'816.3
2018-Jul-14 01:00N 38°27' W 073°57'816.2
2018-Jul-14 00:31N 38°19' W 073°59'815.8
2018-Jul-14 00:01N 38°11' W 074°01'815.7
2018-Jul-13 23:30N 38°03' W 074°02'815.6
2018-Jul-13 23:00N 37°56' W 074°04'8606.1
2018-Jul-13 23:00N 37°48' W 074°00'5 9.7 050 / 201022.510.8 28.0 24.0
2018-Jul-13 22:30N 37°48' W 074°06'815.7
2018-Jul-13 22:00N 37°40' W 074°08'20016.6
2018-Jul-13 10:00N 34°24' W 074°54'19015.9 250 / 71018.410.8 26.0 24.0
2018-Jul-12 22:00N 31°18' W 075°42'19516.3 280 / 41018.410.8 28.0 20.0
2018-Jul-12 10:00N 28°06' W 076°24'   280 / 81017.310.8 28.0 24.0
Track history (hours):
 
Tides and Currents Weather Stations Pressure Air Temp Water Temp Dewpoint Dewpoint Depression Visibility Wind Speed Wind Dir Waves Ship Positions

Norwegian Gem (Bahamas)

Last reported at 2018-Jul-22 00:13 UTC. Time now 2018-Jul-22 06:50 UTC.
Position N 39°27' W 073°55'.

Length 294 m; draft 8.6 m.

Type: Ship. MMSI: 309951000.

Date/timePositionNaut miles runAvg speedWind from/ knotsBaromVisibWave heightAir tempDewpointWater temp
2018-Jul-22 00:13N 39°27' W 073°55'419.1
2018-Jul-21 23:59N 39°31' W 073°54'918.9
2018-Jul-21 23:30N 39°40' W 073°53'1018.9
2018-Jul-21 22:59N 39°50' W 073°52'3718.5
2018-Jul-21 20:58N 40°27' W 073°50'817.0
2018-Jul-21 20:30N 40°31' W 073°59'815.5
2018-Jul-21 20:00N 40°38' W 074°03'612.8
2018-Jul-21 19:30N 40°44' W 074°01'2 4.1
2018-Jul-21 19:00N 40°46' W 073°60'0 0.0
2018-Jul-21 18:30N 40°46' W 073°60'0 0.0
2018-Jul-21 17:57N 40°46' W 073°60'0 0.0
2018-Jul-21 17:30N 40°46' W 073°60'0 0.0
2018-Jul-21 16:56N 40°46' W 073°60'0 0.0
2018-Jul-21 16:29N 40°46' W 073°60'0 0.0
2018-Jul-21 15:59N 40°46' W 073°60'0 0.0
2018-Jul-21 15:29N 40°46' W 073°60'0 0.0
2018-Jul-21 14:59N 40°46' W 073°60'0 0.0
2018-Jul-21 14:28N 40°46' W 073°60'0 0.0
2018-Jul-21 13:28N 40°46' W 073°60'0 0.0
2018-Jul-21 12:58N 40°46' W 073°60'0 0.0
2018-Jul-21 12:28N 40°46' W 073°60'0 0.0
2018-Jul-21 12:00N 40°46' W 073°60'0 0.0
2018-Jul-21 11:30N 40°46' W 073°60'0 0.0
2018-Jul-21 11:00N 40°46' W 073°60'2 4.9
2018-Jul-21 10:30N 40°44' W 074°01'714.8
2018-Jul-21 10:00N 40°36' W 074°03'714.6
2018-Jul-21 09:30N 40°30' W 073°58'815.1
2018-Jul-21 09:00N 40°27' W 073°49'5 8.7
2018-Jul-21 08:24N 40°22' W 073°46'813.2
2018-Jul-21 07:48N 40°14' W 073°45'2212.6
2018-Jul-21 06:02N 39°52' W 073°42'212.4
2018-Jul-21 05:54N 39°50' W 073°42'712.4
2018-Jul-21 05:21N 39°43' W 073°42'513.2
2018-Jul-21 05:00N 39°39' W 073°43'10615.2
2018-Jul-20 22:00N 37°54' W 074°06'10417.3 100 / 261018.810.8 24.0 22.0
2018-Jul-20 16:00N 36°12' W 074°30'9816.3 090 / 171019.7 5.4 25.4 27.0
2018-Jul-20 10:00N 34°36' W 074°54'12818.4 100 / 261017.110.8 24.0 22.0
2018-Jul-20 03:00N 32°30' W 075°24'6716.7 210 / 111017.3 5.4 25.0 27.0
2018-Jul-19 23:00N 31°24' W 075°36'20215.6 190 / 91016.310.8 28.0 24.0
2018-Jul-19 10:00N 28°06' W 076°24'154 5.3 190 / 151016.610.8 28.0 26.0
2018-Jul-18 05:00N 25°42' W 077°24'272 6.3 120 / 111019.9 5.4 28.5 30.0
2018-Jul-16 10:00N 29°42' W 079°48'22320.2 210 / 131017.410.8 29.0 26.0
2018-Jul-15 23:00N 32°54' W 077°36'11021.0 130 / 131016.410.8 27.0 26.0
2018-Jul-15 17:46N 34°19' W 076°13'720.4
2018-Jul-15 17:26N 34°24' W 076°07'1328.2
2018-Jul-15 17:00N 34°30' W 075°54'11218.1 150 / 111019.1 5.4 26.5 30.0
2018-Jul-15 10:49N 36°12' W 074°57'1011.6
2018-Jul-15 10:00N 36°18' W 074°48'1389.9 190 / 91019.210.8 24.0 20.0
2018-Jul-15 09:51N 36°31' W 074°48'721.2
2018-Jul-15 09:30N 36°37' W 074°44'1120.9
2018-Jul-15 08:59N 36°47' W 074°38'1120.8
2018-Jul-15 08:27N 36°57' W 074°33'1120.5
2018-Jul-15 07:56N 37°08' W 074°29'1020.8
2018-Jul-15 07:26N 37°18' W 074°27'920.8
2018-Jul-15 07:00N 37°27' W 074°25'1020.7
2018-Jul-15 06:30N 37°36' W 074°21'1121.2
2018-Jul-15 06:00N 37°47' W 074°18'1121.2
2018-Jul-15 05:29N 37°57' W 074°16'1021.0
2018-Jul-15 05:00N 38°08' W 074°13'1020.7
2018-Jul-15 04:30N 38°17' W 074°10'1020.5
2018-Jul-15 04:00N 38°28' W 074°08'1020.0
2018-Jul-15 03:30N 38°38' W 074°07'1020.0
2018-Jul-15 03:00N 38°47' W 074°04'1019.9
2018-Jul-15 02:31N 38°57' W 074°01'1019.5
2018-Jul-15 02:00N 39°07' W 073°59'1019.4
2018-Jul-15 01:30N 39°16' W 073°57'1019.2
2018-Jul-15 01:00N 39°26' W 073°55'1018.8
2018-Jul-15 00:29N 39°35' W 073°54'918.7
2018-Jul-15 00:00N 39°44' W 073°53'918.7
2018-Jul-14 23:30N 39°54' W 073°52'1218.8
2018-Jul-14 22:51N 40°06' W 073°50'1219.0
2018-Jul-14 22:13N 40°18' W 073°49'519.1
2018-Jul-14 21:59N 40°22' W 073°49'713.7
2018-Jul-14 21:30N 40°28' W 073°53'816.2
2018-Jul-14 21:01N 40°33' W 074°02'815.4
2018-Jul-14 20:30N 40°40' W 074°03'612.0
2018-Jul-14 20:00N 40°46' W 074°00'0 0.6
2018-Jul-14 19:30N 40°46' W 073°60'0 0.0
2018-Jul-14 18:59N 40°46' W 073°60'0 0.0
2018-Jul-14 18:29N 40°46' W 073°60'0 0.0
2018-Jul-14 17:59N 40°46' W 073°60'0 0.0
2018-Jul-14 17:29N 40°46' W 073°60'0 0.0
2018-Jul-14 16:59N 40°46' W 073°60'0 0.0
2018-Jul-14 16:25N 40°46' W 073°60'0 0.0
2018-Jul-14 15:58N 40°46' W 073°60'0 0.0
2018-Jul-14 15:28N 40°46' W 073°60'0 0.0
2018-Jul-14 14:52N 40°46' W 073°60'0 0.0
2018-Jul-14 14:00N 40°46' W 073°60'0 0.0
2018-Jul-14 13:30N 40°46' W 073°60'0 0.0
2018-Jul-14 13:00N 40°46' W 073°60'0 0.0
2018-Jul-14 12:30N 40°46' W 073°60'0 0.0
2018-Jul-14 11:56N 40°46' W 073°60'0 0.0
2018-Jul-14 11:26N 40°46' W 073°60'0 0.5
2018-Jul-14 10:59N 40°46' W 074°00'4 7.5
2018-Jul-14 10:31N 40°43' W 074°02'611.6
2018-Jul-14 10:01N 40°37' W 074°03'612.6
2018-Jul-14 09:30N 40°31' W 073°60'714.1
2018-Jul-14 09:01N 40°28' W 073°51'510.3
2018-Jul-14 08:31N 40°24' W 073°47'612.9
2018-Jul-14 08:01N 40°18' W 073°46'714.7
2018-Jul-14 07:30N 40°10' W 073°45'816.0
2018-Jul-14 07:00N 40°02' W 073°44'816.4
2018-Jul-14 06:30N 39°54' W 073°43'816.3
2018-Jul-14 06:00N 39°46' W 073°42'816.1
2018-Jul-14 05:30N 39°38' W 073°43'816.3
2018-Jul-14 05:00N 39°30' W 073°45'816.2
2018-Jul-14 04:30N 39°22' W 073°46'816.1
2018-Jul-14 04:00N 39°14' W 073°48'815.8
2018-Jul-14 03:30N 39°06' W 073°50'815.9
2018-Jul-14 03:00N 38°58' W 073°51'816.0
2018-Jul-14 02:31N 38°51' W 073°52'815.7
2018-Jul-14 02:00N 38°43' W 073°55'816.2
2018-Jul-14 01:30N 38°35' W 073°56'816.3
2018-Jul-14 01:00N 38°27' W 073°57'816.2
2018-Jul-14 00:31N 38°19' W 073°59'815.8
2018-Jul-14 00:01N 38°11' W 074°01'815.7
2018-Jul-13 23:30N 38°03' W 074°02'815.6
2018-Jul-13 23:00N 37°56' W 074°04'8606.1
2018-Jul-13 23:00N 37°48' W 074°00'5 9.7 050 / 201022.510.8 28.0 24.0
2018-Jul-13 22:30N 37°48' W 074°06'815.7
2018-Jul-13 22:00N 37°40' W 074°08'20016.6
2018-Jul-13 10:00N 34°24' W 074°54'19015.9 250 / 71018.410.8 26.0 24.0
2018-Jul-12 22:00N 31°18' W 075°42'19516.3 280 / 41018.410.8 28.0 20.0
2018-Jul-12 10:00N 28°06' W 076°24'   280 / 81017.310.8 28.0 24.0

Dump ship's entire track history